createdAt,value
2023-03-04T00:01:29.242Z,35.37
2023-03-04T00:03:56.138Z,36.97
2023-03-04T00:06:23.038Z,36.80
2023-03-04T00:08:49.734Z,34.73
2023-03-04T00:11:16.540Z,34.70
2023-03-04T00:13:43.308Z,35.37
2023-03-04T00:16:10.035Z,36.87
2023-03-04T00:18:36.909Z,37.60
2023-03-04T00:21:03.895Z,33.37
2023-03-04T00:23:30.447Z,39.50
2023-03-04T00:25:57.221Z,35.93
2023-03-04T00:28:24.054Z,40.67
2023-03-04T00:30:50.908Z,45.70
2023-03-04T00:33:17.914Z,33.70
2023-03-04T00:35:44.785Z,40.23
2023-03-04T00:38:11.674Z,37.13
2023-03-04T00:40:38.254Z,45.27
2023-03-04T00:43:05.131Z,39.73
2023-03-04T00:45:31.743Z,43.17
2023-03-04T00:47:58.484Z,39.97
2023-03-04T00:50:28.060Z,42.00
2023-03-04T00:52:55.060Z,38.87
2023-03-04T00:55:21.809Z,49.13
2023-03-04T00:57:48.435Z,45.07
2023-03-04T01:00:15.292Z,45.53
2023-03-04T01:02:41.919Z,42.10
2023-03-04T01:05:09.201Z,40.53
2023-03-04T01:07:35.845Z,43.97
2023-03-04T01:10:02.448Z,43.57
2023-03-04T01:12:29.225Z,44.33
2023-03-04T01:14:55.797Z,40.87
2023-03-04T01:17:22.504Z,41.17
2023-03-04T01:19:49.309Z,45.67
2023-03-04T01:22:16.927Z,39.63
2023-03-04T01:24:43.850Z,40.07
2023-03-04T01:27:10.491Z,42.03
2023-03-04T01:29:37.168Z,41.90
2023-03-04T01:32:03.939Z,41.93
2023-03-04T01:34:30.612Z,39.83
2023-03-04T01:36:57.239Z,36.10
2023-03-04T01:39:23.819Z,35.53
2023-03-04T01:41:50.488Z,45.97
2023-03-04T01:44:17.532Z,46.53
2023-03-04T01:46:48.628Z,38.97
2023-03-04T01:49:16.042Z,38.13
2023-03-04T01:51:49.445Z,40.60
2023-03-04T01:54:18.401Z,39.40
2023-03-04T01:56:45.945Z,44.70
2023-03-04T01:59:17.260Z,36.60
2023-03-04T02:01:45.751Z,41.03
2023-03-04T02:04:12.968Z,41.90
2023-03-04T02:06:40.620Z,33.47
2023-03-04T02:09:07.793Z,35.87
2023-03-04T02:11:35.795Z,37.97
2023-03-04T02:14:02.458Z,40.13
2023-03-04T02:16:29.048Z,42.27
2023-03-04T02:18:56.105Z,38.40
2023-03-04T02:21:25.408Z,42.63
2023-03-04T02:23:58.155Z,43.27
2023-03-04T02:26:28.471Z,34.67
2023-03-04T02:28:56.643Z,37.30
2023-03-04T02:31:34.095Z,36.63
2023-03-04T02:34:02.683Z,35.17
2023-03-04T02:36:29.984Z,45.17
2023-03-04T02:39:00.970Z,37.03
2023-03-04T02:41:29.795Z,39.63
2023-03-04T02:43:56.809Z,40.40
2023-03-04T02:46:23.645Z,38.50
2023-03-04T02:48:51.391Z,37.70
2023-03-04T02:51:18.069Z,39.87
2023-03-04T02:53:44.748Z,40.37
2023-03-04T02:56:12.751Z,39.20
2023-03-04T02:58:42.043Z,34.93
2023-03-04T03:01:08.604Z,39.67
2023-03-04T03:03:35.234Z,37.97
2023-03-04T03:06:01.813Z,43.30
2023-03-04T03:08:28.430Z,39.90
2023-03-04T03:10:54.983Z,36.50
2023-03-04T03:13:21.552Z,41.73
2023-03-04T03:15:50.060Z,34.57
2023-03-04T03:18:16.947Z,41.57
2023-03-04T03:20:43.526Z,33.07
2023-03-04T03:23:10.208Z,41.63
2023-03-04T03:25:37.163Z,37.10
2023-03-04T03:28:03.930Z,34.63
2023-03-04T03:30:30.511Z,35.53
2023-03-04T03:32:57.142Z,38.63
2023-03-04T03:35:23.795Z,37.20
2023-03-04T03:37:50.459Z,37.10
2023-03-04T03:40:18.338Z,32.40
2023-03-04T03:42:45.356Z,34.57
2023-03-04T03:45:12.852Z,33.07
2023-03-04T03:47:39.662Z,27.93
2023-03-04T03:50:06.552Z,30.43
2023-03-04T03:52:33.095Z,32.37
2023-03-04T03:55:02.173Z,27.90
2023-03-04T03:57:29.658Z,26.27
2023-03-04T03:59:56.805Z,30.30
2023-03-04T04:02:23.721Z,29.57
2023-03-04T04:04:50.421Z,29.27
2023-03-04T04:07:17.116Z,31.07
2023-03-04T04:09:43.796Z,28.27
2023-03-04T04:12:11.444Z,28.70
2023-03-04T04:14:38.222Z,31.17
2023-03-04T04:17:05.027Z,32.27
2023-03-04T04:19:31.988Z,28.20
2023-03-04T04:21:58.885Z,28.30
2023-03-04T04:24:25.497Z,29.23
2023-03-04T04:26:52.184Z,31.20
2023-03-04T04:29:19.072Z,31.00
2023-03-04T04:31:45.778Z,27.00
2023-03-04T04:34:12.440Z,28.87
2023-03-04T04:36:39.095Z,33.37
2023-03-04T04:39:05.690Z,29.53
2023-03-04T04:41:36.334Z,23.20
2023-03-04T04:44:03.488Z,29.20
2023-03-04T04:46:30.298Z,25.00
2023-03-04T04:48:57.075Z,25.90
2023-03-04T04:51:23.744Z,25.07
2023-03-04T04:53:50.316Z,28.27
2023-03-04T04:56:20.216Z,26.43
2023-03-04T04:58:47.307Z,26.03
2023-03-04T05:01:14.355Z,25.97
2023-03-04T05:03:41.202Z,26.40
2023-03-04T05:06:09.089Z,26.63
2023-03-04T05:08:36.461Z,24.50
2023-03-04T05:11:03.653Z,30.17
2023-03-04T05:13:30.661Z,30.13
2023-03-04T05:15:57.525Z,29.53
2023-03-04T05:18:25.163Z,28.27
2023-03-04T05:20:55.754Z,29.27
2023-03-04T05:23:22.415Z,28.40
2023-03-04T05:25:49.177Z,28.03
2023-03-04T05:28:16.747Z,26.97
2023-03-04T05:30:44.945Z,27.67
2023-03-04T05:33:12.402Z,31.40
2023-03-04T05:35:39.922Z,29.70
2023-03-04T05:38:07.685Z,28.33
2023-03-04T05:40:34.794Z,28.33
2023-03-04T05:43:02.021Z,28.03
2023-03-04T05:45:30.228Z,30.93
2023-03-04T05:47:57.113Z,29.90
2023-03-04T05:50:24.129Z,27.40
2023-03-04T05:52:51.191Z,30.70
2023-03-04T05:55:18.045Z,28.40
2023-03-04T05:57:44.899Z,31.17
2023-03-04T06:00:13.540Z,30.03
2023-03-04T06:02:40.783Z,28.57
2023-03-04T06:05:08.347Z,32.10
2023-03-04T06:07:35.406Z,28.80
2023-03-04T06:10:02.427Z,30.63
2023-03-04T06:12:30.199Z,30.00
2023-03-04T06:14:57.599Z,34.17
2023-03-04T06:17:24.564Z,28.33
2023-03-04T06:19:51.261Z,33.17
2023-03-04T06:22:22.217Z,33.97
2023-03-04T06:24:49.125Z,31.63
2023-03-04T06:27:16.967Z,33.00
2023-03-04T06:29:44.503Z,30.10
2023-03-04T06:32:11.388Z,32.73
2023-03-04T06:34:39.634Z,31.50
2023-03-04T06:37:07.962Z,38.77
2023-03-04T06:39:34.964Z,29.63
2023-03-04T06:42:02.022Z,26.53
2023-03-04T06:44:32.548Z,32.20
2023-03-04T06:46:59.742Z,31.87
2023-03-04T06:49:26.557Z,37.07
2023-03-04T06:51:53.448Z,37.93
2023-03-04T06:54:21.142Z,33.17
2023-03-04T06:56:48.123Z,35.03
2023-03-04T06:59:15.034Z,31.10
2023-03-04T07:01:41.902Z,34.63
2023-03-04T07:04:09.059Z,32.87
2023-03-04T07:06:35.924Z,30.23
2023-03-04T07:09:02.508Z,30.03
2023-03-04T07:11:29.132Z,32.00
2023-03-04T07:13:56.243Z,31.47
2023-03-04T07:16:23.872Z,31.73
2023-03-04T07:18:50.826Z,34.27
2023-03-04T07:21:18.190Z,25.67
2023-03-04T07:23:45.317Z,34.07
2023-03-04T07:26:12.592Z,34.17
2023-03-04T07:28:39.417Z,33.57
2023-03-04T07:31:24.000Z,29.93
2023-03-04T07:33:51.329Z,31.27
2023-03-04T07:36:20.070Z,33.77
2023-03-04T07:38:48.928Z,35.57
2023-03-04T07:41:16.289Z,35.47
2023-03-04T07:43:43.046Z,34.83
2023-03-04T07:46:15.521Z,33.43
2023-03-04T07:48:42.711Z,35.07
2023-03-04T07:51:10.652Z,33.73
2023-03-04T07:53:38.603Z,34.17
2023-03-04T07:56:06.715Z,32.00
2023-03-04T07:58:33.294Z,29.77
2023-03-04T08:01:02.981Z,35.93
2023-03-04T08:03:35.818Z,29.27
2023-03-04T08:06:04.526Z,27.87
2023-03-04T08:08:31.742Z,34.47
2023-03-04T08:10:58.422Z,32.80
2023-03-04T08:13:45.178Z,30.10
2023-03-04T08:16:13.377Z,30.27
2023-03-04T08:18:41.474Z,31.90
2023-03-04T08:21:12.037Z,31.67
2023-03-04T08:23:41.858Z,36.10
2023-03-04T08:26:09.883Z,32.00
2023-03-04T08:28:40.788Z,32.00
2023-03-04T08:31:11.454Z,27.50
2023-03-04T08:33:38.557Z,28.67
2023-03-04T08:36:05.498Z,28.53
2023-03-04T08:38:32.616Z,31.50
2023-03-04T08:40:59.465Z,27.23
2023-03-04T08:43:29.825Z,28.03
2023-03-04T08:45:58.647Z,28.53
2023-03-04T08:48:28.136Z,31.53
2023-03-04T08:50:57.323Z,30.33
2023-03-04T08:53:25.156Z,34.77
2023-03-04T08:55:54.387Z,35.63
2023-03-04T08:58:20.968Z,31.73
2023-03-04T09:00:49.585Z,31.20
2023-03-04T09:03:16.432Z,34.07
2023-03-04T09:05:45.429Z,33.20
2023-03-04T09:08:12.229Z,38.20
2023-03-04T09:10:38.868Z,32.00
2023-03-04T09:13:17.257Z,32.57
2023-03-04T09:15:44.691Z,35.57
2023-03-04T09:18:11.547Z,31.60
2023-03-04T09:20:38.130Z,36.67
2023-03-04T09:23:05.575Z,32.87
2023-03-04T09:25:34.889Z,35.70
2023-03-04T09:28:01.684Z,36.87
2023-03-04T09:30:29.114Z,34.13
2023-03-04T09:32:58.827Z,37.97
2023-03-04T09:35:29.746Z,31.27
2023-03-04T09:37:56.997Z,32.40
2023-03-04T09:40:25.530Z,35.50
2023-03-04T09:42:54.168Z,33.27
2023-03-04T09:45:23.396Z,38.27
2023-03-04T09:47:51.584Z,39.50
2023-03-04T09:50:19.335Z,34.67
2023-03-04T09:53:08.051Z,36.63
2023-03-04T09:55:38.800Z,38.87
2023-03-04T09:58:05.471Z,38.30
2023-03-04T10:00:39.080Z,39.77
2023-03-04T10:03:16.906Z,33.03
2023-03-04T10:05:49.605Z,38.17
2023-03-04T10:08:22.474Z,38.43
2023-03-04T10:10:52.502Z,35.10
2023-03-04T10:13:35.080Z,40.10
2023-03-04T10:16:02.435Z,36.33
2023-03-04T10:18:33.041Z,40.27
2023-03-04T10:21:04.439Z,36.87
2023-03-04T10:23:32.942Z,40.00
2023-03-04T10:26:02.409Z,34.40
2023-03-04T10:28:30.552Z,37.73
2023-03-04T10:31:00.050Z,40.60
2023-03-04T10:33:28.564Z,43.37
2023-03-04T10:35:58.273Z,38.13
2023-03-04T10:38:26.434Z,41.10
2023-03-04T10:40:55.814Z,34.03
2023-03-04T10:43:22.536Z,42.33
2023-03-04T10:45:49.340Z,38.80
2023-03-04T10:48:22.655Z,34.30
2023-03-04T10:50:50.328Z,33.37
2023-03-04T10:53:30.151Z,38.27
2023-03-04T10:55:58.888Z,37.23
2023-03-04T10:58:25.610Z,36.93
2023-03-04T11:01:05.410Z,41.07
2023-03-04T11:03:36.345Z,41.83
2023-03-04T11:06:16.968Z,40.75
2023-03-04T11:08:44.234Z,39.00
2023-03-04T11:11:24.129Z,37.00
2023-03-04T11:13:59.591Z,38.90
2023-03-04T11:16:33.581Z,35.50
2023-03-04T11:19:04.205Z,33.77
2023-03-04T11:21:32.592Z,35.77
2023-03-04T11:24:01.087Z,35.87
2023-03-04T11:26:39.462Z,34.83
2023-03-04T11:29:07.885Z,35.17
2023-03-04T11:31:48.087Z,33.20
2023-03-04T11:34:16.682Z,34.17
2023-03-04T11:37:03.832Z,45.40
2023-03-04T11:39:53.027Z,38.70
2023-03-04T11:42:35.728Z,36.00
2023-03-04T11:45:03.349Z,36.33
2023-03-04T11:47:31.061Z,27.50
2023-03-04T11:50:11.060Z,33.27
2023-03-04T11:53:01.080Z,31.90
2023-03-04T11:55:51.747Z,39.40
2023-03-04T11:58:26.071Z,32.00
2023-03-04T12:00:52.916Z,29.90
2023-03-04T12:03:25.420Z,29.37
2023-03-04T12:05:52.784Z,29.40
2023-03-04T12:08:36.820Z,34.07
2023-03-04T12:11:23.461Z,33.73
2023-03-04T12:13:59.330Z,25.63
2023-03-04T12:16:35.272Z,28.17
2023-03-04T12:19:20.669Z,24.57
2023-03-04T12:22:09.492Z,25.03
2023-03-04T12:24:42.047Z,26.10
2023-03-04T12:27:12.076Z,19.63
2023-03-04T12:29:55.639Z,27.67
2023-03-04T12:32:22.357Z,21.37
2023-03-04T12:35:13.796Z,25.73
2023-03-04T12:37:59.511Z,26.90
2023-03-04T12:40:34.933Z,25.27
2023-03-04T12:43:13.936Z,24.23
2023-03-04T12:45:43.493Z,22.77
2023-03-04T12:48:29.570Z,21.00
2023-03-04T12:51:09.051Z,27.03
2023-03-04T12:53:44.775Z,20.80
2023-03-04T12:56:32.649Z,26.67
2023-03-04T12:59:00.335Z,24.87
2023-03-04T13:01:36.978Z,20.33
2023-03-04T13:04:03.779Z,25.40
2023-03-04T13:06:36.310Z,33.37
2023-03-04T13:09:05.855Z,24.40
2023-03-04T13:11:39.354Z,24.23
2023-03-04T13:14:06.697Z,22.47
2023-03-04T13:16:36.410Z,21.67
2023-03-04T13:19:23.879Z,27.13
2023-03-04T13:21:55.143Z,21.30
2023-03-04T13:24:42.240Z,19.58
2023-03-04T13:27:27.520Z,20.93
2023-03-04T13:29:54.474Z,24.20
2023-03-04T13:32:39.281Z,21.03
2023-03-04T13:35:31.501Z,21.43
2023-03-04T13:37:59.587Z,18.33
2023-03-04T13:40:33.843Z,22.17
2023-03-04T13:43:19.538Z,18.23
2023-03-04T13:45:49.235Z,21.77
2023-03-04T13:48:24.132Z,23.67
2023-03-04T13:50:55.084Z,22.53
2023-03-04T13:53:33.621Z,24.58
2023-03-04T13:56:07.433Z,44.37
2023-03-04T13:58:38.886Z,21.67
2023-03-04T14:01:08.693Z,20.83
2023-03-04T14:03:35.883Z,24.23
2023-03-04T14:06:20.353Z,25.63
2023-03-04T14:08:48.381Z,32.23
2023-03-04T14:11:17.413Z,24.53
2023-03-04T14:13:44.738Z,25.30
2023-03-04T14:16:11.960Z,31.27
2023-03-04T14:18:38.891Z,37.90
2023-03-04T14:21:07.326Z,31.10
2023-03-04T14:23:36.230Z,27.53
2023-03-04T14:26:13.715Z,27.63
2023-03-04T14:28:48.437Z,25.60
2023-03-04T14:31:25.204Z,28.87
2023-03-04T14:33:55.074Z,26.77
2023-03-04T14:36:23.677Z,28.30
2023-03-04T14:38:52.930Z,32.03
2023-03-04T14:41:27.535Z,28.10
2023-03-04T14:43:57.769Z,25.73
2023-03-04T14:46:26.874Z,29.60
2023-03-04T14:48:54.585Z,30.83
2023-03-04T14:51:34.291Z,31.10
2023-03-04T14:54:02.834Z,30.87
2023-03-04T14:59:38.736Z,29.27
2023-03-04T15:02:10.152Z,26.60
2023-03-04T15:04:43.157Z,25.63
2023-03-04T15:07:20.042Z,27.63
2023-03-04T15:09:51.173Z,25.57
2023-03-04T15:12:30.052Z,24.75
2023-03-04T15:15:00.920Z,25.80
2023-03-04T15:17:30.434Z,25.63
2023-03-04T15:20:02.590Z,26.43
2023-03-04T15:22:29.598Z,29.80
2023-03-04T15:24:56.676Z,21.63
2023-03-04T15:27:26.803Z,28.37
2023-03-04T15:29:59.918Z,27.27
2023-03-04T15:32:27.900Z,25.00
2023-03-04T15:34:55.362Z,28.87
2023-03-04T15:37:24.416Z,26.93
2023-03-04T15:42:56.873Z,29.60
2023-03-04T15:45:31.191Z,22.13
2023-03-04T15:47:58.255Z,30.67
2023-03-04T15:50:27.972Z,24.20
2023-03-04T15:52:57.128Z,18.33
2023-03-04T15:55:23.797Z,23.97
2023-03-04T15:57:54.033Z,28.97
2023-03-04T16:00:20.934Z,18.27
2023-03-04T16:02:48.813Z,22.93
2023-03-04T16:05:16.053Z,19.37
2023-03-04T16:07:45.477Z,24.87
2023-03-04T16:10:32.442Z,23.50
2023-03-04T16:13:01.317Z,19.80
2023-03-04T16:15:29.386Z,21.77
2023-03-04T16:17:58.495Z,23.97
2023-03-04T16:20:27.881Z,18.50
2023-03-04T16:23:00.274Z,22.97
2023-03-04T16:25:27.770Z,24.37
2023-03-04T16:27:56.778Z,21.33
2023-03-04T16:30:24.680Z,21.13
2023-03-04T16:32:51.459Z,23.07
2023-03-04T16:35:19.231Z,19.37
2023-03-04T16:37:46.216Z,15.77
2023-03-04T16:40:14.520Z,20.00
2023-03-04T16:42:44.984Z,24.63
2023-03-04T16:45:20.787Z,32.10
2023-03-04T16:47:48.294Z,29.87
2023-03-04T16:50:21.974Z,22.33
2023-03-04T16:52:50.118Z,13.37
2023-03-04T16:55:22.915Z,12.73
2023-03-04T16:57:51.682Z,11.53
2023-03-04T17:00:25.408Z,12.57
2023-03-04T17:02:57.527Z,12.37
2023-03-04T17:05:25.891Z,17.20
2023-03-04T17:07:53.370Z,13.67
2023-03-04T17:10:20.995Z,13.27
2023-03-04T17:12:48.341Z,13.03
2023-03-04T17:15:16.704Z,14.33
2023-03-04T17:17:49.156Z,12.57
2023-03-04T17:20:19.484Z,12.40
2023-03-04T17:22:47.105Z,10.40
2023-03-04T17:25:15.408Z,8.50
2023-03-04T17:27:43.069Z,12.60
2023-03-04T17:30:11.716Z,7.80
2023-03-04T17:32:39.818Z,16.33
2023-03-04T17:35:10.437Z,11.77
2023-03-04T17:37:37.481Z,9.83
2023-03-04T17:40:05.531Z,8.43
2023-03-04T17:42:34.525Z,7.10
2023-03-04T17:45:01.600Z,7.43
2023-03-04T17:47:29.857Z,5.10
2023-03-04T17:49:56.786Z,8.40
2023-03-04T17:52:23.973Z,7.27
2023-03-04T17:54:51.159Z,7.87
2023-03-04T17:57:17.880Z,11.93
2023-03-04T17:59:44.668Z,10.97
2023-03-04T18:02:15.648Z,16.00
2023-03-04T18:04:42.823Z,12.03
2023-03-04T18:07:10.735Z,18.67
2023-03-04T18:09:37.569Z,11.67
2023-03-04T18:12:04.560Z,10.63
2023-03-04T18:14:31.409Z,15.27
2023-03-04T18:16:58.203Z,10.70
2023-03-04T18:19:26.562Z,8.97
2023-03-04T18:21:58.008Z,8.33
2023-03-04T18:24:25.860Z,9.93
2023-03-04T18:26:53.127Z,9.27
2023-03-04T18:29:20.189Z,11.70
2023-03-04T18:31:47.295Z,9.97
2023-03-04T18:34:14.857Z,8.03
2023-03-04T18:36:41.795Z,9.23
2023-03-04T18:39:09.567Z,8.77
2023-03-04T18:41:36.753Z,10.57
2023-03-04T18:44:03.961Z,16.70
2023-03-04T18:46:45.255Z,9.53
2023-03-04T18:49:12.841Z,9.95
2023-03-04T18:51:39.503Z,9.30
2023-03-04T18:54:06.693Z,10.70
2023-03-04T18:56:38.689Z,9.63
2023-03-04T18:59:13.611Z,10.17
2023-03-04T19:01:40.771Z,11.87
2023-03-04T19:11:09.653Z,11.57
2023-03-04T19:13:36.533Z,11.10
2023-03-04T19:16:03.719Z,9.93
2023-03-04T19:18:30.612Z,11.30
2023-03-04T19:24:07.174Z,13.63
2023-03-04T19:26:34.149Z,8.40
2023-03-04T19:29:00.946Z,10.60
2023-03-04T19:31:27.930Z,11.30
2023-03-04T19:33:55.009Z,10.53
2023-03-04T19:36:21.880Z,12.30
2023-03-04T19:38:49.079Z,8.43
2023-03-04T19:41:16.752Z,8.30
2023-03-04T19:43:43.732Z,11.47
2023-03-04T19:49:28.912Z,13.00
2023-03-04T19:52:06.532Z,14.43
2023-03-04T19:54:35.765Z,14.90
2023-03-04T19:57:06.395Z,14.20
2023-03-04T19:59:34.778Z,20.67
2023-03-04T20:02:01.644Z,33.40
2023-03-04T20:04:28.946Z,20.27
2023-03-04T20:06:55.837Z,26.80
2023-03-04T20:09:23.029Z,16.63
2023-03-04T20:11:58.373Z,13.07
2023-03-04T20:14:26.768Z,22.30
2023-03-04T20:16:53.900Z,24.50
2023-03-04T20:19:20.854Z,17.37
2023-03-04T20:21:47.722Z,21.40
2023-03-04T20:24:15.342Z,17.87
2023-03-04T20:26:42.042Z,26.13
2023-03-04T20:29:08.961Z,20.63
2023-03-04T20:31:40.757Z,23.97
2023-03-04T20:34:08.291Z,15.20
2023-03-04T20:36:36.289Z,23.97
2023-03-04T20:39:10.199Z,18.50
2023-03-04T20:41:42.139Z,17.63
2023-03-04T20:44:09.578Z,19.53
2023-03-04T20:46:45.450Z,24.60
2023-03-04T20:49:25.688Z,14.37
2023-03-04T20:52:03.430Z,20.97
2023-03-04T20:54:30.412Z,15.70
2023-03-04T20:56:57.686Z,15.63
2023-03-04T20:59:24.476Z,15.77
2023-03-04T21:01:52.286Z,17.00
2023-03-04T21:04:20.219Z,9.80
2023-03-04T21:06:51.949Z,23.73
2023-03-04T21:09:19.330Z,14.65
2023-03-04T21:11:46.501Z,11.53
2023-03-04T21:14:19.561Z,10.67
2023-03-04T21:16:46.491Z,9.07
2023-03-04T21:19:15.057Z,7.47
2023-03-04T21:21:41.778Z,9.20
2023-03-04T21:24:08.413Z,9.40
2023-03-04T21:26:35.476Z,8.20
2023-03-04T21:29:02.178Z,6.60
2023-03-04T21:31:34.302Z,8.00
2023-03-04T21:34:01.161Z,8.13
2023-03-04T21:36:28.540Z,13.37
2023-03-04T21:39:01.024Z,6.23
2023-03-04T21:41:28.032Z,5.53
2023-03-04T21:43:54.786Z,8.30
2023-03-04T21:46:23.627Z,9.53
2023-03-04T21:48:50.478Z,6.80
2023-03-04T21:51:18.747Z,8.17
2023-03-04T21:53:45.984Z,11.67
2023-03-04T21:56:15.067Z,7.27
2023-03-04T21:58:42.588Z,12.13
2023-03-04T22:01:10.363Z,31.13
2023-03-04T22:03:37.157Z,41.90
2023-03-04T22:06:04.970Z,31.77
2023-03-04T22:08:35.619Z,27.33
2023-03-04T22:11:08.727Z,26.60
2023-03-04T22:13:35.773Z,15.70
2023-03-04T22:16:02.678Z,23.10
2023-03-04T22:18:29.801Z,10.53
2023-03-04T22:21:01.148Z,8.03
2023-03-04T22:23:28.559Z,6.55
2023-03-04T22:25:55.959Z,7.20
2023-03-04T22:28:25.227Z,6.07
2023-03-04T22:30:52.154Z,6.73
2023-03-04T22:33:18.690Z,9.23
2023-03-04T22:35:45.624Z,7.60
2023-03-04T22:38:12.530Z,10.37
2023-03-04T22:40:39.181Z,10.20
2023-03-04T22:43:05.933Z,8.77
2023-03-04T22:45:33.211Z,13.70
2023-03-04T22:48:04.400Z,11.30
2023-03-04T22:50:31.110Z,15.95
2023-03-04T22:52:57.893Z,40.70
2023-03-04T22:55:24.631Z,54.70
2023-03-04T22:57:51.301Z,59.63
2023-03-04T23:00:20.314Z,131.43
2023-03-04T23:02:46.973Z,130.57
2023-03-04T23:05:14.068Z,222.10
2023-03-04T23:07:41.022Z,102.97
2023-03-04T23:10:09.290Z,110.53
2023-03-04T23:12:36.411Z,211.87
2023-03-04T23:15:03.116Z,186.93
2023-03-04T23:17:30.006Z,200.53
2023-03-04T23:19:56.644Z,122.03
2023-03-04T23:22:23.419Z,142.57
2023-03-04T23:24:50.197Z,209.70
2023-03-04T23:27:16.998Z,261.47
2023-03-04T23:29:44.024Z,438.00
2023-03-04T23:32:10.975Z,412.67
2023-03-04T23:34:37.941Z,260.90
2023-03-04T23:37:04.851Z,76.27
2023-03-04T23:39:31.584Z,53.37
2023-03-04T23:41:58.537Z,27.23
2023-03-04T23:44:25.356Z,17.13
2023-03-04T23:46:52.631Z,29.33
2023-03-04T23:49:19.863Z,32.27
2023-03-04T23:51:46.715Z,29.37
2023-03-04T23:54:13.659Z,21.30
2023-03-04T23:56:40.866Z,30.93
2023-03-04T23:59:12.325Z,20.03
